createdAt,value
2023-06-07T00:02:16.900Z,5.20
2023-06-07T00:04:49.782Z,4.82
2023-06-07T00:07:17.010Z,3.90
2023-06-07T00:09:43.929Z,4.25
2023-06-07T00:12:11.861Z,4.57
2023-06-07T00:14:39.145Z,4.35
2023-06-07T00:17:06.096Z,4.30
2023-06-07T00:19:33.162Z,4.53
2023-06-07T00:22:03.385Z,4.28
2023-06-07T00:24:30.433Z,3.90
2023-06-07T00:26:58.860Z,4.05
2023-06-07T00:29:26.091Z,3.85
2023-06-07T00:31:54.474Z,4.07
2023-06-07T00:34:22.009Z,4.38
2023-06-07T00:36:48.905Z,3.95
2023-06-07T00:39:16.217Z,4.50
2023-06-07T00:41:43.136Z,3.97
2023-06-07T00:44:10.126Z,4.55
2023-06-07T00:46:37.108Z,4.47
2023-06-07T00:49:04.099Z,4.20
2023-06-07T00:51:32.309Z,4.95
2023-06-07T00:54:03.567Z,4.80
2023-06-07T00:56:31.358Z,3.85
2023-06-07T00:58:58.732Z,4.40
2023-06-07T01:01:26.857Z,4.00
2023-06-07T01:03:55.572Z,3.92
2023-06-07T01:06:26.125Z,3.90
2023-06-07T01:08:53.959Z,4.43
2023-06-07T01:11:25.359Z,3.92
2023-06-07T01:13:52.583Z,4.47
2023-06-07T01:16:19.717Z,4.25
2023-06-07T01:18:47.416Z,3.97
2023-06-07T01:21:20.770Z,4.25
2023-06-07T01:23:49.433Z,4.20
2023-06-07T01:26:17.437Z,4.15
2023-06-07T01:28:46.433Z,3.97
2023-06-07T01:31:15.431Z,4.22
2023-06-07T01:33:43.890Z,4.45
2023-06-07T01:36:12.742Z,4.40
2023-06-07T01:38:40.765Z,4.32
2023-06-07T01:41:08.962Z,4.72
2023-06-07T01:43:37.859Z,4.38
2023-06-07T01:46:06.402Z,4.35
2023-06-07T01:48:33.451Z,4.18
2023-06-07T01:51:00.325Z,4.53
2023-06-07T01:53:28.867Z,4.50
2023-06-07T01:56:05.428Z,4.60
2023-06-07T01:58:49.195Z,4.45
2023-06-07T02:01:39.858Z,4.55
2023-06-07T02:04:11.816Z,4.00
2023-06-07T02:06:43.540Z,4.13
2023-06-07T02:09:13.626Z,4.50
2023-06-07T02:11:42.581Z,3.90
2023-06-07T02:14:10.911Z,4.47
2023-06-07T02:16:38.114Z,3.92
2023-06-07T02:19:09.039Z,4.45
2023-06-07T02:21:37.814Z,4.90
2023-06-07T02:24:07.198Z,4.28
2023-06-07T02:26:34.818Z,4.22
2023-06-07T02:29:03.197Z,5.00
2023-06-07T02:31:31.238Z,4.20
2023-06-07T02:33:58.278Z,4.60
2023-06-07T02:36:33.947Z,4.30
2023-06-07T02:39:01.800Z,4.80
2023-06-07T02:41:29.667Z,5.53
2023-06-07T02:43:56.882Z,4.63
2023-06-07T02:46:23.821Z,4.85
2023-06-07T02:48:50.895Z,4.55
2023-06-07T02:51:17.809Z,4.25
2023-06-07T02:53:50.701Z,4.47
2023-06-07T02:56:18.120Z,5.35
2023-06-07T02:58:44.973Z,4.60
2023-06-07T03:01:12.758Z,4.55
2023-06-07T03:03:39.664Z,4.55
2023-06-07T03:06:08.911Z,4.85
2023-06-07T03:08:36.080Z,4.70
2023-06-07T03:11:03.600Z,4.30
2023-06-07T03:13:31.001Z,4.80
2023-06-07T03:15:58.065Z,5.70
2023-06-07T03:18:25.349Z,4.70
2023-06-07T03:20:52.688Z,4.72
2023-06-07T03:23:19.548Z,4.88
2023-06-07T03:25:46.903Z,4.57
2023-06-07T03:28:14.851Z,4.78
2023-06-07T03:33:23.345Z,5.03
2023-06-07T03:35:50.897Z,5.03
2023-06-07T03:38:17.796Z,4.65
2023-06-07T03:40:44.691Z,4.35
2023-06-07T03:43:11.618Z,4.93
2023-06-07T03:45:38.557Z,4.75
2023-06-07T03:48:05.827Z,4.28
2023-06-07T03:50:32.948Z,4.47
2023-06-07T03:52:59.872Z,5.10
2023-06-07T03:55:27.109Z,5.43
2023-06-07T03:57:54.394Z,4.43
2023-06-07T04:00:21.693Z,4.95
2023-06-07T04:02:49.219Z,5.32
2023-06-07T04:05:16.439Z,5.18
2023-06-07T04:07:43.375Z,5.82
2023-06-07T04:10:11.966Z,5.28
2023-06-07T04:12:39.209Z,5.15
2023-06-07T04:15:07.058Z,4.72
2023-06-07T04:17:33.967Z,5.15
2023-06-07T04:20:00.893Z,4.80
2023-06-07T04:22:28.273Z,5.80
2023-06-07T04:24:55.284Z,4.97
2023-06-07T04:27:24.605Z,5.70
2023-06-07T04:29:55.010Z,5.90
2023-06-07T04:32:22.418Z,5.63
2023-06-07T04:34:49.902Z,5.50
2023-06-07T04:37:17.632Z,5.80
2023-06-07T04:39:50.683Z,6.22
2023-06-07T04:42:18.196Z,6.35
2023-06-07T04:44:45.750Z,6.45
2023-06-07T04:47:15.117Z,6.82
2023-06-07T04:49:42.161Z,6.25
2023-06-07T04:52:09.316Z,5.72
2023-06-07T04:54:39.384Z,6.47
2023-06-07T04:57:10.309Z,6.47
2023-06-07T04:59:44.206Z,6.25
2023-06-07T05:02:11.710Z,6.25
2023-06-07T05:04:39.537Z,6.90
2023-06-07T05:07:10.083Z,6.28
2023-06-07T05:09:37.517Z,6.25
2023-06-07T05:12:04.782Z,5.72
2023-06-07T05:14:31.704Z,6.45
2023-06-07T05:17:01.135Z,6.28
2023-06-07T05:19:28.234Z,5.80
2023-06-07T05:21:55.199Z,6.18
2023-06-07T05:24:22.062Z,6.25
2023-06-07T05:26:49.195Z,6.57
2023-06-07T05:29:16.213Z,7.05
2023-06-07T05:31:43.217Z,6.43
2023-06-07T05:34:10.205Z,7.63
2023-06-07T05:36:37.049Z,7.55
2023-06-07T05:39:04.288Z,7.07
2023-06-07T05:41:31.667Z,7.10
2023-06-07T05:43:58.589Z,6.75
2023-06-07T05:46:28.584Z,7.40
2023-06-07T05:48:55.510Z,6.97
2023-06-07T05:51:26.576Z,7.60
2023-06-07T05:53:53.417Z,6.95
2023-06-07T05:56:22.893Z,7.18
2023-06-07T05:58:53.259Z,7.45
2023-06-07T06:01:20.260Z,6.70
2023-06-07T06:03:47.241Z,7.10
2023-06-07T06:06:19.160Z,6.55
2023-06-07T06:08:46.890Z,7.15
2023-06-07T06:11:15.432Z,6.28
2023-06-07T06:13:43.547Z,7.20
2023-06-07T06:16:12.637Z,6.82
2023-06-07T06:18:42.068Z,6.68
2023-06-07T06:21:09.684Z,6.75
2023-06-07T06:23:37.196Z,6.38
2023-06-07T06:26:05.824Z,7.50
2023-06-07T06:28:32.755Z,6.63
2023-06-07T06:31:01.422Z,6.75
2023-06-07T06:33:28.598Z,6.60
2023-06-07T06:35:55.530Z,6.72
2023-06-07T06:38:22.486Z,7.15
2023-06-07T06:40:49.384Z,6.95
2023-06-07T06:43:16.637Z,6.80
2023-06-07T06:45:43.961Z,6.80
2023-06-07T06:48:11.609Z,7.70
2023-06-07T06:50:39.021Z,8.23
2023-06-07T06:53:06.240Z,7.50
2023-06-07T06:55:33.116Z,7.97
2023-06-07T06:58:01.585Z,7.32
2023-06-07T07:00:28.475Z,7.88
2023-06-07T07:02:55.420Z,8.48
2023-06-07T07:05:22.943Z,8.43
2023-06-07T07:07:49.765Z,8.35
2023-06-07T07:10:19.412Z,8.68
2023-06-07T07:12:46.929Z,7.57
2023-06-07T07:15:13.993Z,7.97
2023-06-07T07:17:48.374Z,7.68
2023-06-07T07:20:17.584Z,7.32
2023-06-07T07:22:45.820Z,9.18
2023-06-07T07:25:13.730Z,8.02
2023-06-07T07:27:40.929Z,8.85
2023-06-07T07:30:08.431Z,8.45
2023-06-07T07:32:35.626Z,8.77
2023-06-07T07:35:03.961Z,9.05
2023-06-07T07:37:31.284Z,9.55
2023-06-07T07:39:58.257Z,9.65
2023-06-07T07:42:25.187Z,9.75
2023-06-07T07:44:52.113Z,10.15
2023-06-07T07:47:19.090Z,10.52
2023-06-07T07:49:46.514Z,10.52
2023-06-07T07:52:13.657Z,10.52
2023-06-07T07:54:40.548Z,10.30
2023-06-07T07:57:07.878Z,10.40
2023-06-07T07:59:34.876Z,10.00
2023-06-07T08:02:01.883Z,10.00
2023-06-07T08:04:28.807Z,10.68
2023-06-07T08:06:56.072Z,10.55
2023-06-07T08:09:23.072Z,10.93
2023-06-07T08:11:50.670Z,11.23
2023-06-07T08:14:17.561Z,10.55
2023-06-07T08:16:45.448Z,10.15
2023-06-07T08:19:12.876Z,10.43
2023-06-07T08:21:40.083Z,9.93
2023-06-07T08:24:08.621Z,10.02
2023-06-07T08:26:35.594Z,10.50
2023-06-07T08:29:02.477Z,9.60
2023-06-07T08:31:30.181Z,9.07
2023-06-07T08:33:57.265Z,8.57
2023-06-07T08:36:24.583Z,9.32
2023-06-07T08:38:51.477Z,9.15
2023-06-07T08:41:18.441Z,10.00
2023-06-07T08:43:45.470Z,9.00
2023-06-07T08:46:15.389Z,7.70
2023-06-07T08:48:43.105Z,7.88
2023-06-07T08:51:12.113Z,8.38
2023-06-07T08:53:49.122Z,7.95
2023-06-07T08:56:19.201Z,7.50
2023-06-07T08:58:48.285Z,7.88
2023-06-07T09:01:16.172Z,7.20
2023-06-07T09:03:43.540Z,8.48
2023-06-07T09:06:47.090Z,7.68
2023-06-07T09:11:42.224Z,5.70
2023-06-07T09:14:10.634Z,6.88
2023-06-07T09:16:56.523Z,6.70
2023-06-07T09:19:42.456Z,7.05
2023-06-07T09:22:14.233Z,6.30
2023-06-07T09:24:41.953Z,6.45
2023-06-07T09:27:09.602Z,6.63
2023-06-07T09:29:44.646Z,7.20
2023-06-07T09:32:27.255Z,7.68
2023-06-07T09:35:12.547Z,9.48
2023-06-07T09:37:46.709Z,8.82
2023-06-07T09:40:15.212Z,8.45
2023-06-07T09:42:43.527Z,9.23
2023-06-07T09:45:19.847Z,9.73
2023-06-07T09:47:47.022Z,9.27
2023-06-07T09:50:14.820Z,9.82
2023-06-07T09:52:42.347Z,8.68
2023-06-07T09:55:25.442Z,9.32
2023-06-07T10:00:20.649Z,10.50
2023-06-07T10:02:48.711Z,8.82
2023-06-07T10:05:17.818Z,8.43
2023-06-07T10:07:58.764Z,8.13
2023-06-07T10:10:28.183Z,7.63
2023-06-07T10:12:58.367Z,7.38
2023-06-07T10:15:26.745Z,7.85
2023-06-07T10:18:14.051Z,6.88
2023-06-07T10:20:46.168Z,7.95
2023-06-07T10:23:18.476Z,7.78
2023-06-07T10:25:53.776Z,8.23
2023-06-07T10:28:22.780Z,5.88
2023-06-07T10:30:55.624Z,6.25
2023-06-07T10:35:52.530Z,6.10
2023-06-07T10:38:20.150Z,5.90
2023-06-07T10:40:50.814Z,6.18
2023-06-07T10:43:20.292Z,6.05
2023-06-07T10:45:47.321Z,5.75
2023-06-07T10:48:47.125Z,5.78
2023-06-07T10:51:14.926Z,5.55
2023-06-07T10:53:57.578Z,5.85
2023-06-07T10:56:35.911Z,5.78
2023-06-07T10:59:14.914Z,6.55
2023-06-07T11:01:43.035Z,6.70
2023-06-07T11:04:39.401Z,6.45
2023-06-07T11:07:25.585Z,6.45
2023-06-07T11:10:08.919Z,6.53
2023-06-07T11:12:36.489Z,9.50
2023-06-07T11:15:19.570Z,9.73
2023-06-07T11:20:42.059Z,9.57
2023-06-07T11:23:27.602Z,9.13
2023-06-07T11:26:09.635Z,9.95
2023-06-07T11:28:39.141Z,9.13
2023-06-07T11:31:13.822Z,9.23
2023-06-07T11:33:43.041Z,9.70
2023-06-07T11:36:14.161Z,11.43
2023-06-07T11:38:50.729Z,9.90
2023-06-07T11:41:18.631Z,9.88
2023-06-07T11:43:46.987Z,11.10
2023-06-07T11:50:08.398Z,11.35
2023-06-07T11:52:40.728Z,10.90
2023-06-07T11:55:10.720Z,10.45
2023-06-07T11:57:42.765Z,11.52
2023-06-07T12:03:35.134Z,12.18
2023-06-07T12:06:03.487Z,11.05
2023-06-07T12:08:32.570Z,11.02
2023-06-07T12:10:59.792Z,12.20
2023-06-07T12:13:27.913Z,12.23
2023-06-07T12:15:56.699Z,12.50
2023-06-07T12:18:31.070Z,10.88
2023-06-07T12:21:13.975Z,12.20
2023-06-07T12:23:52.340Z,12.82
2023-06-07T12:26:27.644Z,12.52
2023-06-07T12:28:56.307Z,14.18
2023-06-07T12:31:32.181Z,13.55
2023-06-07T12:34:04.049Z,12.48
2023-06-07T12:36:35.286Z,14.18
2023-06-07T12:39:22.077Z,14.25
2023-06-07T12:41:49.006Z,14.65
2023-06-07T12:44:16.949Z,14.18
2023-06-07T12:46:43.961Z,13.60
2023-06-07T12:49:10.990Z,15.40
2023-06-07T12:51:37.964Z,13.57
2023-06-07T12:54:05.513Z,14.93
2023-06-07T12:56:32.513Z,15.25
2023-06-07T12:59:01.309Z,15.15
2023-06-07T13:01:30.280Z,14.13
2023-06-07T13:03:57.503Z,15.25
2023-06-07T13:06:25.988Z,15.45
2023-06-07T13:09:20.393Z,15.15
2023-06-07T13:11:48.205Z,15.35
2023-06-07T13:14:18.192Z,15.82
2023-06-07T13:16:45.673Z,16.40
2023-06-07T13:19:13.378Z,16.77
2023-06-07T13:21:44.332Z,13.77
2023-06-07T13:24:11.296Z,13.93
2023-06-07T13:26:38.488Z,13.50
2023-06-07T13:29:05.428Z,12.88
2023-06-07T13:31:32.517Z,14.43
2023-06-07T13:33:59.540Z,16.60
2023-06-07T13:36:26.693Z,16.33
2023-06-07T13:38:55.379Z,15.25
2023-06-07T13:41:23.482Z,18.23
2023-06-07T13:44:03.317Z,16.85
2023-06-07T13:46:37.998Z,15.45
2023-06-07T13:49:06.334Z,16.83
2023-06-07T13:51:36.538Z,16.10
2023-06-07T13:54:04.031Z,14.25
2023-06-07T13:56:31.708Z,12.55
2023-06-07T13:59:00.340Z,10.07
2023-06-07T14:01:28.604Z,9.88
2023-06-07T14:03:57.107Z,10.57
2023-06-07T14:06:24.440Z,9.15
2023-06-07T14:08:51.312Z,9.63
2023-06-07T14:11:18.316Z,11.25
2023-06-07T14:13:45.727Z,11.70
2023-06-07T14:16:14.410Z,12.60
2023-06-07T14:18:41.589Z,9.65
2023-06-07T14:21:08.536Z,9.63
2023-06-07T14:23:36.009Z,10.43
2023-06-07T14:26:02.940Z,9.43
2023-06-07T14:28:30.259Z,9.75
2023-06-07T14:30:57.214Z,9.27
2023-06-07T14:33:24.079Z,9.32
2023-06-07T14:35:53.654Z,10.55
2023-06-07T14:38:20.503Z,10.30
2023-06-07T14:40:47.736Z,10.73
2023-06-07T14:43:15.006Z,12.38
2023-06-07T14:45:41.947Z,11.40
2023-06-07T14:48:09.073Z,11.85
2023-06-07T14:50:36.360Z,14.25
2023-06-07T14:53:03.365Z,15.05
2023-06-07T14:55:30.274Z,13.75
2023-06-07T14:58:00.614Z,13.18
2023-06-07T15:00:30.893Z,11.93
2023-06-07T15:02:58.542Z,8.70
2023-06-07T15:05:26.700Z,10.00
2023-06-07T15:07:55.854Z,9.77
2023-06-07T15:10:22.933Z,10.60
2023-06-07T15:12:50.037Z,8.50
2023-06-07T15:15:17.494Z,6.28
2023-06-07T15:17:45.084Z,5.03
2023-06-07T15:20:13.068Z,4.47
2023-06-07T15:22:39.971Z,4.30
2023-06-07T15:25:08.622Z,3.90
2023-06-07T15:27:37.104Z,4.38
2023-06-07T15:30:05.289Z,3.60
2023-06-07T15:32:33.051Z,4.28
2023-06-07T15:35:00.204Z,3.90
2023-06-07T15:37:27.516Z,4.88
2023-06-07T15:39:54.795Z,4.55
2023-06-07T15:42:22.134Z,4.88
2023-06-07T15:44:49.034Z,4.65
2023-06-07T15:47:17.150Z,5.53
2023-06-07T15:49:44.787Z,4.65
2023-06-07T15:52:12.074Z,5.50
2023-06-07T15:54:39.452Z,5.47
2023-06-07T15:57:07.534Z,5.65
2023-06-07T15:59:36.318Z,5.50
2023-06-07T16:02:03.925Z,6.72
2023-06-07T16:04:32.093Z,6.03
2023-06-07T16:06:59.802Z,6.78
2023-06-07T16:09:28.241Z,7.85
2023-06-07T16:11:55.202Z,9.55
2023-06-07T16:14:22.882Z,9.35
2023-06-07T16:16:50.652Z,13.07
2023-06-07T16:19:17.924Z,12.93
2023-06-07T16:21:44.993Z,13.18
2023-06-07T16:24:12.883Z,12.77
2023-06-07T16:26:39.966Z,12.52
2023-06-07T16:29:07.247Z,13.50
2023-06-07T16:31:34.414Z,12.73
2023-06-07T16:34:02.194Z,13.00
2023-06-07T16:36:30.592Z,12.60
2023-06-07T16:38:57.641Z,14.07
2023-06-07T16:41:26.686Z,13.95
2023-06-07T16:43:53.949Z,11.95
2023-06-07T16:46:21.617Z,12.98
2023-06-07T16:48:48.919Z,10.82
2023-06-07T16:51:16.050Z,10.68
2023-06-07T16:53:43.012Z,11.52
2023-06-07T16:56:09.954Z,10.48
2023-06-07T16:58:37.266Z,10.70
2023-06-07T17:01:04.999Z,11.55
2023-06-07T17:03:32.113Z,11.80
2023-06-07T17:05:59.156Z,13.18
2023-06-07T17:08:26.083Z,13.25
2023-06-07T17:10:53.319Z,13.40
2023-06-07T17:13:20.380Z,13.02
2023-06-07T17:15:47.372Z,15.15
2023-06-07T17:18:14.414Z,15.40
2023-06-07T17:20:42.281Z,15.27
2023-06-07T17:23:09.586Z,13.82
2023-06-07T17:25:38.569Z,13.93
2023-06-07T17:28:05.936Z,15.68
2023-06-07T17:30:41.380Z,16.38
2023-06-07T17:33:08.369Z,15.48
2023-06-07T17:35:35.584Z,16.17
2023-06-07T17:38:02.496Z,15.95
2023-06-07T17:40:29.703Z,15.88
2023-06-07T17:42:58.774Z,17.05
2023-06-07T17:45:27.361Z,17.40
2023-06-07T17:47:55.646Z,15.93
2023-06-07T17:50:37.082Z,17.42
2023-06-07T17:53:09.300Z,16.92
2023-06-07T17:55:36.367Z,17.45
2023-06-07T17:58:03.387Z,17.40
2023-06-07T18:00:31.191Z,18.38
2023-06-07T18:02:58.575Z,15.45
2023-06-07T18:05:25.839Z,15.95
2023-06-07T18:07:53.141Z,18.48
2023-06-07T18:10:20.615Z,18.58
2023-06-07T18:12:47.884Z,16.42
2023-06-07T18:15:14.962Z,16.75
2023-06-07T18:17:41.936Z,18.83
2023-06-07T18:20:09.830Z,17.92
2023-06-07T18:22:37.055Z,17.40
2023-06-07T18:25:04.326Z,16.52
2023-06-07T18:27:31.353Z,16.77
2023-06-07T18:29:58.545Z,14.73
2023-06-07T18:32:25.483Z,16.50
2023-06-07T18:34:54.886Z,15.30
2023-06-07T18:37:21.843Z,15.82
2023-06-07T18:39:48.866Z,17.05
2023-06-07T18:42:16.798Z,16.67
2023-06-07T18:44:44.204Z,16.63
2023-06-07T18:47:11.152Z,15.27
2023-06-07T18:49:38.137Z,16.63
2023-06-07T18:52:11.999Z,18.00
2023-06-07T18:54:39.303Z,16.95
2023-06-07T18:57:08.890Z,16.83
2023-06-07T18:59:35.863Z,14.95
2023-06-07T19:02:03.217Z,17.08
2023-06-07T19:04:30.266Z,17.75
2023-06-07T19:06:57.588Z,17.83
2023-06-07T19:09:24.575Z,17.55
2023-06-07T19:11:51.497Z,15.27
2023-06-07T19:14:21.602Z,17.02
2023-06-07T19:16:48.767Z,18.20
2023-06-07T19:19:15.760Z,18.40
2023-06-07T19:21:42.714Z,17.13
2023-06-07T19:24:09.721Z,17.05
2023-06-07T19:26:36.629Z,20.08
2023-06-07T19:29:04.226Z,18.67
2023-06-07T19:31:31.189Z,18.73
2023-06-07T19:33:58.348Z,20.92
2023-06-07T19:36:25.397Z,19.27
2023-06-07T19:38:54.069Z,16.42
2023-06-07T19:41:21.956Z,19.23
2023-06-07T19:43:48.875Z,19.35
2023-06-07T19:46:15.851Z,16.40
2023-06-07T19:48:42.723Z,20.63
2023-06-07T19:51:10.178Z,21.20
2023-06-07T19:53:37.076Z,23.52
2023-06-07T19:56:04.952Z,21.38
2023-06-07T19:58:32.081Z,22.40
2023-06-07T20:00:58.923Z,20.15
2023-06-07T20:03:25.742Z,22.20
2023-06-07T20:05:52.725Z,21.83
2023-06-07T20:08:19.556Z,21.45
2023-06-07T20:10:46.438Z,22.35
2023-06-07T20:13:17.820Z,22.83
2023-06-07T20:15:47.965Z,23.65
2023-06-07T20:18:14.751Z,24.38
2023-06-07T20:20:41.672Z,23.02
2023-06-07T20:23:08.666Z,24.67
2023-06-07T20:25:35.937Z,22.42
2023-06-07T20:28:02.814Z,23.20
2023-06-07T20:30:31.329Z,21.48
2023-06-07T20:32:58.264Z,21.08
2023-06-07T20:35:25.094Z,20.98
2023-06-07T20:37:51.950Z,25.02
2023-06-07T20:40:18.899Z,27.63
2023-06-07T20:42:45.795Z,27.10
2023-06-07T20:45:13.700Z,25.02
2023-06-07T20:47:41.145Z,26.42
2023-06-07T20:50:09.646Z,28.52
2023-06-07T20:52:36.546Z,23.55
2023-06-07T20:55:04.238Z,22.17
2023-06-07T20:57:34.132Z,22.90
2023-06-07T21:00:05.649Z,24.40
2023-06-07T21:02:33.491Z,24.27
2023-06-07T21:05:00.525Z,24.88
2023-06-07T21:07:27.820Z,23.52
2023-06-07T21:09:54.699Z,23.60
2023-06-07T21:12:21.969Z,22.88
2023-06-07T21:14:49.487Z,23.42
2023-06-07T21:17:19.302Z,24.15
2023-06-07T21:19:48.376Z,23.52
2023-06-07T21:22:15.615Z,22.48
2023-06-07T21:24:42.530Z,25.23
2023-06-07T21:27:09.907Z,26.13
2023-06-07T21:29:36.970Z,24.02
2023-06-07T21:32:04.263Z,24.48
2023-06-07T21:34:31.092Z,23.00
2023-06-07T21:36:57.913Z,21.50
2023-06-07T21:39:25.595Z,22.50
2023-06-07T21:41:54.599Z,22.63
2023-06-07T21:44:23.617Z,21.73
2023-06-07T21:46:51.584Z,21.80
2023-06-07T21:49:18.827Z,22.17
2023-06-07T21:51:46.062Z,22.73
2023-06-07T21:54:12.993Z,21.77
2023-06-07T21:56:42.755Z,21.77
2023-06-07T21:59:10.296Z,24.45
2023-06-07T22:01:37.574Z,27.15
2023-06-07T22:04:05.106Z,25.15
2023-06-07T22:06:32.135Z,25.65
2023-06-07T22:08:59.399Z,25.23
2023-06-07T22:11:26.488Z,25.05
2023-06-07T22:13:53.867Z,25.58
2023-06-07T22:16:22.116Z,26.83
2023-06-07T22:18:50.149Z,26.13
2023-06-07T22:21:18.602Z,25.48
2023-06-07T22:23:45.576Z,24.90
2023-06-07T22:26:13.234Z,24.63
2023-06-07T22:28:41.327Z,25.13
2023-06-07T22:31:08.266Z,26.88
2023-06-07T22:33:35.220Z,24.73
2023-06-07T22:36:05.236Z,25.80
2023-06-07T22:38:32.245Z,25.60
2023-06-07T22:40:59.357Z,27.23
2023-06-07T22:43:26.337Z,25.98
2023-06-07T22:45:53.274Z,25.30
2023-06-07T22:48:21.746Z,26.38
2023-06-07T22:50:49.042Z,27.20
2023-06-07T22:53:16.312Z,26.48
2023-06-07T22:55:43.654Z,25.13
2023-06-07T22:58:10.739Z,25.45
2023-06-07T23:00:38.405Z,25.33
2023-06-07T23:03:09.200Z,25.13
2023-06-07T23:05:38.398Z,25.98
2023-06-07T23:08:06.883Z,25.60
2023-06-07T23:10:36.831Z,25.00
2023-06-07T23:13:10.372Z,26.38
2023-06-07T23:15:42.861Z,25.02
2023-06-07T23:18:12.594Z,25.73
2023-06-07T23:20:42.247Z,24.38
2023-06-07T23:23:11.349Z,25.30
2023-06-07T23:25:38.877Z,25.98
2023-06-07T23:28:06.977Z,27.10
2023-06-07T23:30:34.557Z,25.35
2023-06-07T23:33:02.025Z,27.10
2023-06-07T23:35:29.369Z,26.30
2023-06-07T23:37:56.645Z,26.10
2023-06-07T23:40:23.855Z,25.73
2023-06-07T23:42:53.032Z,25.50
2023-06-07T23:45:22.270Z,26.15
2023-06-07T23:47:49.320Z,27.20
2023-06-07T23:50:16.511Z,24.80
2023-06-07T23:52:43.460Z,25.25
2023-06-07T23:55:10.665Z,26.20
2023-06-07T23:57:37.679Z,24.98
